createdAt,value
2023-02-04T00:08:09.904Z,0.9
2023-02-04T00:20:09.923Z,0.9
2023-02-04T00:32:09.968Z,0.8
2023-02-04T00:44:09.888Z,1.1
2023-02-04T00:56:09.910Z,0.9
2023-02-04T01:08:09.922Z,1.1
2023-02-04T01:20:09.936Z,1.3
2023-02-04T01:32:09.884Z,1.1
2023-02-04T01:44:09.952Z,1.2
2023-02-04T01:56:09.892Z,1.5
2023-02-04T02:08:10.007Z,1.4
2023-02-04T02:20:09.907Z,1.0
2023-02-04T02:32:09.888Z,1.9
2023-02-04T02:44:09.929Z,1.7
2023-02-04T02:56:09.900Z,1.4
2023-02-04T03:08:09.931Z,1.3
2023-02-04T03:20:09.948Z,1.0
2023-02-04T03:32:09.957Z,1.5
2023-02-04T03:44:09.958Z,1.3
2023-02-04T03:56:09.961Z,1.1
2023-02-04T04:08:10.007Z,2.1
2023-02-04T04:20:09.923Z,2.7
2023-02-04T04:32:10.000Z,2.0
2023-02-04T04:44:09.961Z,1.2
2023-02-04T04:56:09.951Z,0.7
2023-02-04T05:08:09.968Z,0.9
2023-02-04T05:20:09.967Z,1.2
2023-02-04T05:32:09.967Z,2.3
2023-02-04T05:44:09.975Z,2.9
2023-02-04T05:56:09.980Z,2.5
2023-02-04T06:08:09.955Z,1.7
2023-02-04T06:20:09.962Z,1.1
2023-02-04T06:33:09.962Z,1.3
2023-02-04T06:46:09.995Z,1.1
2023-02-04T07:00:10.001Z,1.1
2023-02-04T07:13:10.079Z,1.1
2023-02-04T07:26:09.997Z,1.8
2023-02-04T07:39:09.988Z,2.2
2023-02-04T07:52:09.985Z,2.7
2023-02-04T08:05:10.010Z,3.9
2023-02-04T08:18:10.046Z,5.3
2023-02-04T08:31:10.102Z,6.2
2023-02-04T08:44:10.026Z,6.2
2023-02-04T08:57:10.035Z,6.8
2023-02-04T09:10:10.044Z,7.3
2023-02-04T09:23:10.083Z,8.4
2023-02-04T09:36:10.146Z,10.1
2023-02-04T09:49:10.059Z,10.6
2023-02-04T10:02:10.115Z,10.6
2023-02-04T10:15:10.056Z,10.5
2023-02-04T10:28:10.133Z,11.6
2023-02-04T10:41:10.064Z,11.7
2023-02-04T10:54:10.079Z,12.2
2023-02-04T11:07:10.058Z,11.8
2023-02-04T11:20:10.078Z,12.4
2023-02-04T11:33:10.093Z,12.4
2023-02-04T11:47:10.075Z,12.6
2023-02-04T12:01:10.168Z,12.9
2023-02-04T12:14:10.096Z,13.5
2023-02-04T12:27:10.088Z,12.9
2023-02-04T12:41:10.125Z,12.4
2023-02-04T12:54:10.113Z,12.6
2023-02-04T13:07:10.128Z,12.6
2023-02-04T13:20:10.176Z,12.1
2023-02-04T13:33:10.142Z,12.4
2023-02-04T13:46:10.176Z,12.2
2023-02-04T13:59:10.145Z,12.0
2023-02-04T14:12:10.155Z,11.8
2023-02-04T14:25:10.239Z,11.5
2023-02-04T14:39:10.159Z,11.3
2023-02-04T14:53:10.214Z,11.6
2023-02-04T15:07:10.186Z,11.6
2023-02-04T15:20:10.183Z,11.7
2023-02-04T15:29:45.844Z,11.7
2023-02-04T15:42:45.714Z,11.6
2023-02-04T15:55:45.745Z,10.8
2023-02-04T16:08:45.960Z,9.3
2023-02-04T16:21:45.812Z,7.8
2023-02-04T16:34:45.831Z,6.7
2023-02-04T16:47:45.860Z,5.8
2023-02-04T17:00:45.904Z,5.6
2023-02-04T17:12:46.002Z,5.8
2023-02-04T17:24:45.948Z,4.9
2023-02-04T17:36:45.959Z,5.1
2023-02-04T17:48:46.039Z,4.8
2023-02-04T18:00:46.089Z,5.6
2023-02-04T18:12:45.988Z,5.1
2023-02-04T18:24:45.988Z,4.6
2023-02-04T18:36:45.999Z,5.0
2023-02-04T18:48:45.986Z,3.7
2023-02-04T19:00:46.060Z,4.0
2023-02-04T19:12:46.092Z,4.2
2023-02-04T19:24:46.188Z,4.4
2023-02-04T19:36:46.236Z,4.3
2023-02-04T19:48:46.352Z,3.7
2023-02-04T20:00:46.471Z,3.8
2023-02-04T20:12:46.559Z,2.8
2023-02-04T20:24:46.522Z,2.6
2023-02-04T20:36:46.469Z,2.3
2023-02-04T20:48:46.476Z,3.4
2023-02-04T21:00:46.477Z,3.9
2023-02-04T21:12:46.495Z,4.1
2023-02-04T21:24:46.483Z,4.0
2023-02-04T21:36:46.507Z,3.3
2023-02-04T21:48:46.501Z,4.2
2023-02-04T22:00:46.508Z,4.3
2023-02-04T22:12:46.559Z,4.6
2023-02-04T22:24:46.570Z,4.7
2023-02-04T22:36:46.566Z,5.1
2023-02-04T22:48:46.573Z,5.2
2023-02-04T23:00:46.661Z,5.1
2023-02-04T23:12:46.708Z,5.7
2023-02-04T23:24:46.737Z,6.0
2023-02-04T23:36:46.782Z,6.1
2023-02-04T23:48:46.760Z,5.7
